createdAt,value
2023-02-04T00:00:07.712Z,1.20
2023-02-04T00:00:18.485Z,1.30
2023-02-04T00:00:30.019Z,1.40
2023-02-04T00:00:40.573Z,1.00
2023-02-04T00:00:51.346Z,0.80
2023-02-04T00:01:02.403Z,0.90
2023-02-04T00:01:13.425Z,0.70
2023-02-04T00:01:24.130Z,1.10
2023-02-04T00:01:35.192Z,1.40
2023-02-04T00:01:46.162Z,1.20
2023-02-04T00:01:56.932Z,2.40
2023-02-04T00:02:07.997Z,2.80
2023-02-04T00:02:18.983Z,2.80
2023-02-04T00:02:29.801Z,1.80
2023-02-04T00:02:40.373Z,1.30
2023-02-04T00:02:51.357Z,1.70
2023-02-04T00:03:02.187Z,2.00
2023-02-04T00:03:12.645Z,1.80
2023-02-04T00:03:23.633Z,1.10
2023-02-04T00:03:34.401Z,0.90
2023-02-04T00:03:45.443Z,0.60
2023-02-04T00:03:56.415Z,0.60
2023-02-04T00:04:07.322Z,0.80
2023-02-04T00:04:17.819Z,1.70
2023-02-04T00:04:28.792Z,1.80
2023-02-04T00:04:39.558Z,2.70
2023-02-04T00:04:50.607Z,1.80
2023-02-04T00:05:01.635Z,1.80
2023-02-04T00:05:12.348Z,0.70
2023-02-04T00:05:23.429Z,0.80
2023-02-04T00:05:34.416Z,0.90
2023-02-04T00:05:45.194Z,0.70
2023-02-04T00:05:56.247Z,0.70
2023-02-04T00:06:07.248Z,0.60
2023-02-04T00:06:18.006Z,0.70
2023-02-04T00:06:28.517Z,0.90
2023-02-04T00:06:39.492Z,1.00
2023-02-04T00:06:50.248Z,0.80
2023-02-04T00:07:01.308Z,1.00
2023-02-04T00:07:12.272Z,1.00
2023-02-04T00:07:23.065Z,1.00
2023-02-04T00:07:34.089Z,0.80
2023-02-04T00:07:45.052Z,1.50
2023-02-04T00:07:55.838Z,1.50
2023-02-04T00:08:06.888Z,1.40
2023-02-04T00:08:17.874Z,1.60
2023-02-04T00:08:28.690Z,1.60
2023-02-04T00:08:39.194Z,1.60
2023-02-04T00:08:50.160Z,1.00
2023-02-04T00:09:00.932Z,1.10
2023-02-04T00:09:11.980Z,2.10
2023-02-04T00:09:22.950Z,2.10
2023-02-04T00:09:33.741Z,1.70
2023-02-04T00:09:44.804Z,1.00
2023-02-04T00:09:55.773Z,0.80
2023-02-04T00:10:06.539Z,1.10
2023-02-04T00:10:17.593Z,1.20
2023-02-04T00:10:28.819Z,1.20
2023-02-04T00:10:39.221Z,1.00
2023-02-04T00:10:50.272Z,0.70
2023-02-04T00:11:01.260Z,0.70
2023-02-04T00:11:12.018Z,0.90
2023-02-04T00:11:23.094Z,1.70
2023-02-04T00:11:34.087Z,1.60
2023-02-04T00:11:44.880Z,1.60
2023-02-04T00:11:55.883Z,1.20
2023-02-04T00:12:06.857Z,1.10
2023-02-04T00:12:17.617Z,1.50
2023-02-04T00:12:28.665Z,1.50
2023-02-04T00:12:39.648Z,2.00
2023-02-04T00:12:50.414Z,1.80
2023-02-04T00:13:01.475Z,1.60
2023-02-04T00:13:12.458Z,2.20
2023-02-04T00:13:23.205Z,2.00
2023-02-04T00:13:34.261Z,1.80
2023-02-04T00:13:45.242Z,1.80
2023-02-04T00:13:56.015Z,1.40
2023-02-04T00:14:07.053Z,1.20
2023-02-04T00:14:18.022Z,1.10
2023-02-04T00:14:28.793Z,1.10
2023-02-04T00:14:39.835Z,1.20
2023-02-04T00:14:50.801Z,1.10
2023-02-04T00:15:01.604Z,1.00
2023-02-04T00:15:12.626Z,1.20
2023-02-04T00:15:23.595Z,1.30
2023-02-04T00:15:34.360Z,1.10
2023-02-04T00:15:45.448Z,1.00
2023-02-04T00:15:56.422Z,1.00
2023-02-04T00:16:07.189Z,1.20
2023-02-04T00:16:18.251Z,1.20
2023-02-04T00:16:29.258Z,1.20
2023-02-04T00:16:39.981Z,1.50
2023-02-04T00:16:51.037Z,2.10
2023-02-04T00:17:01.995Z,2.00
2023-02-04T00:17:12.773Z,1.50
2023-02-04T00:17:23.809Z,1.60
2023-02-04T00:17:34.803Z,1.80
2023-02-04T00:17:45.552Z,1.80
2023-02-04T00:17:56.617Z,1.50
2023-02-04T00:18:08.515Z,1.50
2023-02-04T00:18:19.343Z,1.30
2023-02-04T00:18:29.732Z,1.20
2023-02-04T00:18:40.712Z,1.00
2023-02-04T00:18:51.475Z,1.10
2023-02-04T00:19:02.535Z,1.30
2023-02-04T00:19:13.514Z,1.30
2023-02-04T00:19:24.271Z,1.90
2023-02-04T00:19:35.334Z,2.10
2023-02-04T00:19:46.308Z,2.20
2023-02-04T00:19:57.076Z,2.00
2023-02-04T00:20:08.118Z,2.10
2023-02-04T00:20:19.113Z,1.50
2023-02-04T00:20:30.190Z,1.20
2023-02-04T00:20:40.822Z,1.50
2023-02-04T00:20:51.835Z,1.90
2023-02-04T00:21:02.606Z,1.60
2023-02-04T00:21:13.696Z,1.60
2023-02-04T00:21:24.649Z,1.20
2023-02-04T00:21:35.415Z,1.30
2023-02-04T00:21:46.467Z,1.30
2023-02-04T00:21:57.439Z,2.00
2023-02-04T00:22:08.206Z,2.00
2023-02-04T00:22:19.251Z,2.00
2023-02-04T00:22:30.244Z,1.50
2023-02-04T00:22:40.980Z,1.20
2023-02-04T00:22:52.036Z,1.10
2023-02-04T00:23:03.121Z,1.10
2023-02-04T00:23:13.930Z,1.10
2023-02-04T00:23:24.972Z,1.20
2023-02-04T00:23:35.938Z,1.20
2023-02-04T00:23:46.766Z,1.40
2023-02-04T00:23:57.277Z,1.60
2023-02-04T00:24:08.266Z,1.90
2023-02-04T00:24:19.023Z,1.60
2023-02-04T00:24:30.078Z,1.30
2023-02-04T00:24:41.045Z,1.10
2023-02-04T00:24:51.811Z,1.20
2023-02-04T00:25:02.866Z,1.90
2023-02-04T00:25:13.833Z,2.10
2023-02-04T00:25:24.609Z,1.70
2023-02-04T00:25:35.657Z,1.50
2023-02-04T00:25:46.617Z,1.60
2023-02-04T00:25:57.397Z,1.50
2023-02-04T00:26:08.441Z,1.40
2023-02-04T00:26:19.394Z,2.50
2023-02-04T00:26:30.156Z,2.30
2023-02-04T00:26:41.203Z,2.20
2023-02-04T00:26:52.183Z,1.00
2023-02-04T00:27:02.941Z,1.40
2023-02-04T00:27:13.982Z,1.50
2023-02-04T00:27:24.959Z,1.40
2023-02-04T00:27:35.754Z,1.60
2023-02-04T00:27:46.813Z,1.70
2023-02-04T00:27:57.819Z,1.90
2023-02-04T00:28:08.674Z,2.20
2023-02-04T00:28:19.186Z,2.10
2023-02-04T00:28:30.109Z,1.40
2023-02-04T00:28:40.871Z,1.50
2023-02-04T00:28:51.930Z,1.50
2023-02-04T00:29:02.898Z,1.50
2023-02-04T00:29:13.669Z,1.40
2023-02-04T00:29:24.782Z,1.40
2023-02-04T00:29:35.744Z,1.50
2023-02-04T00:29:46.507Z,1.00
2023-02-04T00:29:57.579Z,1.00
2023-02-04T00:30:08.535Z,0.80
2023-02-04T00:30:19.304Z,1.10
2023-02-04T00:30:30.709Z,1.60
2023-02-04T00:30:41.241Z,1.60
2023-02-04T00:30:52.024Z,1.20
2023-02-04T00:31:02.584Z,1.00
2023-02-04T00:31:13.771Z,0.80
2023-02-04T00:31:24.604Z,0.80
2023-02-04T00:31:35.212Z,0.90
2023-02-04T00:31:45.764Z,1.20
2023-02-04T00:31:56.665Z,1.10
2023-02-04T00:32:07.352Z,0.80
2023-02-04T00:32:17.963Z,0.80
2023-02-04T00:32:28.695Z,0.80
2023-02-04T00:32:39.747Z,0.80
2023-02-04T00:32:50.710Z,0.90
2023-02-04T00:33:01.484Z,0.80
2023-02-04T00:33:12.533Z,1.00
2023-02-04T00:33:23.599Z,1.20
2023-02-04T00:33:34.376Z,1.30
2023-02-04T00:33:45.423Z,1.00
2023-02-04T00:33:56.401Z,0.70
2023-02-04T00:34:07.169Z,0.70
2023-02-04T00:34:18.242Z,0.90
2023-02-04T00:34:29.086Z,1.00
2023-02-04T00:34:39.831Z,1.00
2023-02-04T00:34:50.872Z,1.30
2023-02-04T00:35:01.837Z,1.20
2023-02-04T00:35:12.608Z,1.00
2023-02-04T00:35:23.645Z,1.00
2023-02-04T00:35:34.641Z,1.00
2023-02-04T00:35:45.411Z,1.00
2023-02-04T00:35:56.456Z,0.90
2023-02-04T00:36:07.424Z,0.90
2023-02-04T00:36:18.188Z,0.80
2023-02-04T00:36:29.233Z,1.10
2023-02-04T00:36:40.215Z,1.00
2023-02-04T00:36:51.072Z,1.10
2023-02-04T00:37:02.116Z,0.90
2023-02-04T00:37:13.099Z,1.00
2023-02-04T00:37:23.854Z,0.70
2023-02-04T00:37:34.902Z,0.70
2023-02-04T00:37:45.881Z,0.80
2023-02-04T00:37:56.638Z,1.20
2023-02-04T00:38:07.683Z,1.20
2023-02-04T00:38:18.648Z,0.90
2023-02-04T00:38:29.430Z,0.70
2023-02-04T00:38:40.495Z,1.00
2023-02-04T00:38:51.478Z,1.20
2023-02-04T00:39:02.251Z,1.30
2023-02-04T00:39:13.323Z,1.10
2023-02-04T00:39:24.304Z,0.80
2023-02-04T00:39:35.093Z,1.70
2023-02-04T00:39:46.123Z,1.70
2023-02-04T00:39:57.092Z,1.00
2023-02-04T00:40:07.862Z,0.90
2023-02-04T00:40:18.906Z,0.90
2023-02-04T00:40:30.221Z,1.00
2023-02-04T00:40:41.056Z,1.00
2023-02-04T00:40:52.096Z,0.80
2023-02-04T00:41:03.062Z,0.90
2023-02-04T00:41:13.844Z,1.50
2023-02-04T00:41:24.888Z,1.40
2023-02-04T00:41:35.858Z,1.70
2023-02-04T00:41:46.624Z,1.10
2023-02-04T00:41:57.736Z,0.80
2023-02-04T00:42:08.661Z,0.80
2023-02-04T00:42:19.419Z,0.90
2023-02-04T00:42:30.473Z,0.90
2023-02-04T00:42:41.444Z,1.60
2023-02-04T00:42:52.232Z,1.30
2023-02-04T00:43:03.285Z,1.20
2023-02-04T00:43:14.250Z,1.20
2023-02-04T00:43:25.016Z,1.10
2023-02-04T00:43:36.075Z,1.10
2023-02-04T00:43:47.041Z,1.10
2023-02-04T00:43:57.812Z,1.40
2023-02-04T00:44:08.866Z,1.10
2023-02-04T00:44:19.830Z,1.20
2023-02-04T00:44:30.618Z,0.90
2023-02-04T00:44:41.668Z,0.90
2023-02-04T00:44:52.630Z,1.00
2023-02-04T00:45:03.407Z,1.60
2023-02-04T00:45:14.449Z,1.30
2023-02-04T00:45:25.517Z,1.10
2023-02-04T00:45:36.308Z,0.80
2023-02-04T00:45:46.850Z,0.80
2023-02-04T00:45:57.914Z,0.90
2023-02-04T00:46:08.737Z,1.10
2023-02-04T00:46:19.758Z,1.80
2023-02-04T00:46:30.732Z,1.80
2023-02-04T00:46:41.508Z,1.50
2023-02-04T00:46:52.558Z,1.00
2023-02-04T00:47:03.527Z,1.10
2023-02-04T00:47:14.308Z,1.20
2023-02-04T00:47:25.354Z,1.30
2023-02-04T00:47:36.312Z,1.90
2023-02-04T00:47:47.103Z,2.10
2023-02-04T00:47:58.167Z,2.00
2023-02-04T00:48:09.155Z,2.00
2023-02-04T00:48:19.928Z,1.70
2023-02-04T00:48:30.974Z,1.30
2023-02-04T00:48:41.951Z,0.90
2023-02-04T00:48:52.716Z,0.80
2023-02-04T00:49:03.771Z,0.90
2023-02-04T00:49:14.770Z,1.60
2023-02-04T00:49:25.517Z,1.70
2023-02-04T00:49:36.587Z,1.70
2023-02-04T00:49:47.582Z,1.60
2023-02-04T00:49:58.336Z,1.60
2023-02-04T00:50:09.382Z,1.10
2023-02-04T00:50:20.365Z,1.30
2023-02-04T00:50:31.446Z,1.30
2023-02-04T00:50:42.148Z,1.90
2023-02-04T00:50:53.139Z,1.70
2023-02-04T00:51:03.881Z,1.50
2023-02-04T00:51:14.927Z,1.30
2023-02-04T00:51:25.895Z,0.90
2023-02-04T00:51:36.677Z,1.00
2023-02-04T00:51:47.706Z,1.10
2023-02-04T00:51:58.675Z,1.30
2023-02-04T00:52:09.450Z,1.20
2023-02-04T00:52:20.490Z,1.10
2023-02-04T00:52:31.470Z,0.80
2023-02-04T00:52:42.226Z,0.90
2023-02-04T00:52:53.287Z,1.10
2023-02-04T00:53:04.253Z,1.00
2023-02-04T00:53:15.015Z,1.50
2023-02-04T00:53:26.060Z,1.50
2023-02-04T00:53:37.025Z,1.50
2023-02-04T00:53:47.829Z,1.10
2023-02-04T00:53:58.866Z,1.10
2023-02-04T00:54:09.839Z,1.10
2023-02-04T00:54:20.624Z,1.20
2023-02-04T00:54:31.660Z,1.70
2023-02-04T00:54:42.644Z,1.60
2023-02-04T00:54:53.401Z,1.30
2023-02-04T00:55:04.515Z,0.80
2023-02-04T00:55:15.417Z,1.20
2023-02-04T00:55:26.180Z,1.50
2023-02-04T00:55:37.233Z,2.30
2023-02-04T00:55:48.200Z,2.00
2023-02-04T00:55:58.966Z,2.50
2023-02-04T00:56:10.016Z,1.70
2023-02-04T00:56:21.005Z,1.50
2023-02-04T00:56:31.743Z,1.10
2023-02-04T00:56:42.794Z,1.10
2023-02-04T00:56:53.757Z,1.00
2023-02-04T00:57:04.519Z,1.10
2023-02-04T00:57:15.565Z,2.50
2023-02-04T00:57:26.532Z,2.70
2023-02-04T00:57:37.310Z,3.00
2023-02-04T00:57:48.343Z,1.40
2023-02-04T00:57:59.316Z,1.50
2023-02-04T00:58:10.089Z,1.20
2023-02-04T00:58:21.148Z,0.80
2023-02-04T00:58:32.113Z,1.10
2023-02-04T00:58:42.897Z,1.00
2023-02-04T00:58:53.974Z,1.10
2023-02-04T00:59:04.958Z,1.00
2023-02-04T00:59:15.714Z,1.30
2023-02-04T00:59:26.773Z,1.20
2023-02-04T00:59:37.762Z,1.20
2023-02-04T00:59:48.523Z,1.30
2023-02-04T00:59:59.576Z,1.50
2023-02-04T01:00:10.557Z,1.20
2023-02-04T01:00:21.320Z,0.80
2023-02-04T01:00:32.755Z,0.90
2023-02-04T01:00:43.332Z,1.00
2023-02-04T01:00:54.112Z,1.00
2023-02-04T01:01:05.256Z,1.00
2023-02-04T01:01:16.220Z,1.40
2023-02-04T01:01:26.963Z,1.30
2023-02-04T01:01:38.014Z,1.40
2023-02-04T01:01:48.983Z,1.80
2023-02-04T01:01:59.746Z,1.70
2023-02-04T01:02:10.790Z,0.70
2023-02-04T01:02:21.757Z,1.10
2023-02-04T01:02:32.566Z,1.00
2023-02-04T01:02:43.129Z,1.10
2023-02-04T01:02:54.117Z,0.90
2023-02-04T01:03:04.855Z,0.80
2023-02-04T01:03:15.912Z,0.80
2023-02-04T01:03:26.877Z,0.70
2023-02-04T01:03:37.641Z,0.80
2023-02-04T01:03:48.699Z,0.70
2023-02-04T01:03:59.672Z,0.60
2023-02-04T01:04:10.443Z,0.70
2023-02-04T01:04:21.490Z,1.50
2023-02-04T01:04:32.487Z,1.60
2023-02-04T01:04:43.241Z,1.30
2023-02-04T01:04:54.317Z,0.90
2023-02-04T01:05:05.348Z,0.80
2023-02-04T01:05:16.076Z,0.80
2023-02-04T01:05:27.122Z,0.80
2023-02-04T01:05:38.124Z,0.80
2023-02-04T01:05:48.867Z,0.80
2023-02-04T01:05:59.927Z,1.00
2023-02-04T01:06:10.898Z,1.10
2023-02-04T01:06:21.658Z,0.90
2023-02-04T01:06:32.708Z,0.80
2023-02-04T01:06:43.675Z,0.90
2023-02-04T01:06:54.454Z,0.70
2023-02-04T01:07:05.535Z,0.70
2023-02-04T01:07:16.523Z,0.70
2023-02-04T01:07:27.279Z,0.70
2023-02-04T01:07:38.394Z,0.90
2023-02-04T01:07:49.315Z,1.00
2023-02-04T01:08:00.078Z,0.90
2023-02-04T01:08:11.124Z,1.00
2023-02-04T01:08:22.098Z,1.00
2023-02-04T01:08:32.861Z,1.10
2023-02-04T01:08:43.902Z,0.80
2023-02-04T01:08:54.881Z,0.70
2023-02-04T01:09:05.646Z,0.80
2023-02-04T01:09:16.700Z,1.20
2023-02-04T01:09:27.676Z,1.20
2023-02-04T01:09:38.456Z,1.20
2023-02-04T01:09:49.530Z,1.10
2023-02-04T01:10:00.510Z,1.60
2023-02-04T01:10:11.283Z,1.50
2023-02-04T01:10:22.399Z,1.20
2023-02-04T01:10:33.187Z,1.00
2023-02-04T01:10:43.600Z,0.70
2023-02-04T01:10:54.181Z,0.70
2023-02-04T01:11:05.167Z,0.70
2023-02-04T01:11:15.944Z,0.80
2023-02-04T01:11:27.072Z,1.20
2023-02-04T01:11:37.968Z,1.40
2023-02-04T01:11:48.731Z,1.60
2023-02-04T01:11:59.778Z,1.10
2023-02-04T01:12:10.740Z,1.00
2023-02-04T01:12:21.512Z,1.10
2023-02-04T01:12:32.240Z,1.40
2023-02-04T01:12:43.225Z,1.10
2023-02-04T01:12:54.178Z,0.90
2023-02-04T01:13:05.233Z,1.30
2023-02-04T01:13:16.198Z,1.40
2023-02-04T01:13:26.968Z,1.30
2023-02-04T01:13:38.026Z,1.00
2023-02-04T01:13:48.987Z,1.10
2023-02-04T01:13:59.748Z,1.40
2023-02-04T01:14:10.796Z,1.30
2023-02-04T01:14:21.768Z,1.50
2023-02-04T01:14:32.542Z,1.60
2023-02-04T01:14:43.613Z,1.10
2023-02-04T01:14:54.588Z,1.50
2023-02-04T01:15:05.348Z,1.10
2023-02-04T01:15:16.422Z,1.10
2023-02-04T01:15:27.355Z,0.80
2023-02-04T01:15:38.125Z,0.90
2023-02-04T01:15:49.173Z,0.80
2023-02-04T01:16:00.148Z,0.80
2023-02-04T01:16:10.976Z,0.80
2023-02-04T01:16:22.061Z,1.00
2023-02-04T01:16:33.036Z,2.70
2023-02-04T01:16:43.802Z,2.50
2023-02-04T01:16:54.823Z,2.40
2023-02-04T01:17:05.795Z,0.70
2023-02-04T01:17:16.555Z,0.80
2023-02-04T01:17:27.597Z,0.70
2023-02-04T01:17:38.568Z,1.00
2023-02-04T01:17:49.325Z,1.00
2023-02-04T01:18:00.372Z,0.90
2023-02-04T01:18:11.341Z,0.90
2023-02-04T01:18:22.131Z,1.50
2023-02-04T01:18:33.152Z,1.80
2023-02-04T01:18:44.126Z,2.20
2023-02-04T01:18:54.897Z,1.50
2023-02-04T01:19:05.961Z,1.20
2023-02-04T01:19:17.323Z,0.90
2023-02-04T01:19:28.088Z,1.40
2023-02-04T01:19:39.137Z,1.50
2023-02-04T01:19:50.136Z,1.50
2023-02-04T01:20:00.902Z,0.70
2023-02-04T01:20:11.946Z,0.60
2023-02-04T01:20:22.917Z,0.70
2023-02-04T01:20:33.702Z,0.70
2023-02-04T01:20:44.740Z,0.70
2023-02-04T01:20:55.702Z,0.70
2023-02-04T01:21:06.463Z,0.60
2023-02-04T01:21:17.514Z,0.80
2023-02-04T01:21:28.483Z,0.70
2023-02-04T01:21:40.958Z,1.40
2023-02-04T01:21:49.870Z,1.50
2023-02-04T01:22:00.843Z,1.50
2023-02-04T01:22:11.607Z,1.00
2023-02-04T01:22:22.669Z,0.70
2023-02-04T01:22:33.625Z,0.80
2023-02-04T01:22:44.393Z,0.90
2023-02-04T01:22:55.446Z,0.80
2023-02-04T01:23:06.532Z,0.90
2023-02-04T01:23:17.253Z,0.90
2023-02-04T01:23:28.300Z,0.90
2023-02-04T01:23:39.271Z,0.70
2023-02-04T01:23:50.039Z,0.70
2023-02-04T01:24:01.083Z,0.70
2023-02-04T01:24:12.059Z,0.80
2023-02-04T01:24:22.831Z,0.70
2023-02-04T01:24:33.878Z,0.70
2023-02-04T01:24:44.847Z,0.70
2023-02-04T01:24:55.618Z,0.80
2023-02-04T01:25:06.684Z,0.70
2023-02-04T01:25:17.646Z,1.30
2023-02-04T01:25:28.445Z,1.40
2023-02-04T01:25:39.468Z,1.50
2023-02-04T01:25:50.430Z,0.90
2023-02-04T01:26:01.210Z,0.80
2023-02-04T01:26:12.249Z,1.10
2023-02-04T01:26:23.208Z,1.20
2023-02-04T01:26:33.991Z,1.00
2023-02-04T01:26:45.023Z,0.60
2023-02-04T01:26:55.989Z,0.60
2023-02-04T01:27:06.763Z,0.60
2023-02-04T01:27:17.812Z,0.70
2023-02-04T01:27:28.775Z,1.50
2023-02-04T01:27:39.676Z,1.60
2023-02-04T01:27:50.206Z,1.10
2023-02-04T01:28:01.194Z,0.70
2023-02-04T01:28:11.974Z,0.80
2023-02-04T01:28:22.975Z,0.70
2023-02-04T01:28:33.952Z,0.80
2023-02-04T01:28:44.725Z,0.70
2023-02-04T01:28:55.793Z,0.70
2023-02-04T01:29:06.767Z,1.30
2023-02-04T01:29:17.540Z,1.40
2023-02-04T01:29:28.583Z,1.30
2023-02-04T01:29:39.573Z,0.70
2023-02-04T01:29:50.339Z,0.70
2023-02-04T01:30:01.381Z,1.10
2023-02-04T01:30:12.357Z,1.00
2023-02-04T01:30:23.151Z,0.90
2023-02-04T01:30:34.248Z,0.60
2023-02-04T01:30:45.202Z,0.80
2023-02-04T01:30:55.990Z,1.60
2023-02-04T01:31:07.056Z,1.50
2023-02-04T01:31:18.323Z,0.80
2023-02-04T01:31:28.628Z,0.90
2023-02-04T01:31:39.679Z,0.90
2023-02-04T01:31:50.648Z,1.20
2023-02-04T01:32:01.421Z,0.80
2023-02-04T01:32:12.431Z,0.70
2023-02-04T01:32:23.405Z,1.00
2023-02-04T01:32:34.222Z,1.20
2023-02-04T01:32:44.707Z,1.30
2023-02-04T01:32:55.673Z,1.00
2023-02-04T01:33:06.449Z,0.80
2023-02-04T01:33:17.511Z,0.80
2023-02-04T01:33:28.469Z,1.10
2023-02-04T01:33:39.231Z,0.90
2023-02-04T01:33:50.278Z,1.20
2023-02-04T01:34:01.250Z,0.90
2023-02-04T01:34:12.022Z,0.70
2023-02-04T01:34:23.090Z,0.70
2023-02-04T01:34:34.071Z,1.60
2023-02-04T01:34:44.869Z,2.20
2023-02-04T01:34:57.240Z,2.00
2023-02-04T01:35:06.628Z,1.20
2023-02-04T01:35:17.394Z,1.10
2023-02-04T01:35:28.440Z,1.30
2023-02-04T01:35:39.456Z,2.60
2023-02-04T01:35:50.221Z,2.60
2023-02-04T01:36:01.273Z,2.90
2023-02-04T01:36:12.236Z,1.80
2023-02-04T01:36:23.014Z,2.10
2023-02-04T01:36:34.063Z,1.70
2023-02-04T01:36:45.025Z,1.00
2023-02-04T01:36:55.799Z,0.70
2023-02-04T01:37:06.838Z,0.90
2023-02-04T01:37:17.807Z,1.20
2023-02-04T01:37:28.622Z,1.60
2023-02-04T01:37:39.122Z,1.50
2023-02-04T01:37:50.088Z,1.10
2023-02-04T01:38:00.864Z,1.10
2023-02-04T01:38:11.930Z,1.20
2023-02-04T01:38:22.910Z,1.30
2023-02-04T01:38:33.658Z,1.30
2023-02-04T01:38:44.730Z,2.10
2023-02-04T01:38:55.705Z,2.70
2023-02-04T01:39:06.486Z,2.70
2023-02-04T01:39:17.558Z,1.90
2023-02-04T01:39:28.533Z,1.80
2023-02-04T01:39:39.323Z,2.50
2023-02-04T01:39:49.850Z,2.30
2023-02-04T01:40:00.812Z,2.60
2023-02-04T01:40:11.584Z,2.10
2023-02-04T01:40:22.625Z,2.60
2023-02-04T01:40:33.769Z,2.20
2023-02-04T01:40:44.527Z,2.50
2023-02-04T01:40:55.582Z,2.60
2023-02-04T01:41:06.552Z,2.80
2023-02-04T01:41:17.376Z,2.50
2023-02-04T01:41:27.862Z,2.20
2023-02-04T01:41:38.853Z,2.10
2023-02-04T01:41:49.589Z,1.90
2023-02-04T01:42:00.640Z,2.20
2023-02-04T01:42:11.610Z,1.90
2023-02-04T01:42:22.389Z,1.80
2023-02-04T01:42:33.446Z,1.80
2023-02-04T01:42:44.406Z,1.80
2023-02-04T01:42:55.174Z,2.20
2023-02-04T01:43:06.222Z,2.30
2023-02-04T01:43:17.215Z,2.30
2023-02-04T01:43:27.978Z,3.50
2023-02-04T01:43:39.029Z,4.10
2023-02-04T01:43:49.997Z,4.10
2023-02-04T01:44:00.773Z,3.50
2023-02-04T01:44:11.829Z,2.80
2023-02-04T01:44:22.876Z,2.70
2023-02-04T01:44:33.615Z,2.10
2023-02-04T01:44:44.669Z,2.40
2023-02-04T01:44:55.647Z,2.30
2023-02-04T01:45:06.426Z,2.60
2023-02-04T01:45:17.465Z,2.50
2023-02-04T01:45:28.450Z,2.80
2023-02-04T01:45:39.233Z,3.50
2023-02-04T01:45:50.307Z,2.90
2023-02-04T01:46:01.306Z,2.20
2023-02-04T01:46:12.083Z,1.80
2023-02-04T01:46:23.082Z,3.00
2023-02-04T01:46:34.046Z,3.30
2023-02-04T01:46:44.835Z,3.90
2023-02-04T01:46:55.877Z,2.80
2023-02-04T01:47:06.862Z,3.60
2023-02-04T01:47:17.630Z,3.40
2023-02-04T01:47:28.670Z,2.90
2023-02-04T01:47:39.644Z,2.80
2023-02-04T01:47:50.414Z,2.30
2023-02-04T01:48:01.506Z,3.10
2023-02-04T01:48:12.436Z,3.70
2023-02-04T01:48:23.218Z,4.80
2023-02-04T01:48:34.273Z,3.50
2023-02-04T01:48:45.248Z,3.70
2023-02-04T01:48:56.027Z,3.40
2023-02-04T01:49:07.076Z,4.50
2023-02-04T01:49:18.047Z,4.50
2023-02-04T01:49:28.818Z,4.50
2023-02-04T01:49:39.878Z,3.20
2023-02-04T01:49:50.852Z,3.80
2023-02-04T01:50:01.628Z,2.60
2023-02-04T01:50:12.667Z,3.30
2023-02-04T01:50:23.631Z,2.80
2023-02-04T01:50:34.421Z,2.70
2023-02-04T01:50:45.447Z,2.40
2023-02-04T01:50:56.415Z,3.30
2023-02-04T01:51:07.169Z,3.20
2023-02-04T01:51:18.228Z,3.50
2023-02-04T01:51:29.282Z,2.60
2023-02-04T01:51:40.020Z,1.60
2023-02-04T01:51:51.058Z,1.30
2023-02-04T01:52:02.026Z,1.90
2023-02-04T01:52:12.792Z,2.10
2023-02-04T01:52:23.839Z,2.60
2023-02-04T01:52:34.806Z,2.40
2023-02-04T01:52:45.639Z,2.70
2023-02-04T01:52:56.163Z,2.90
2023-02-04T01:53:07.133Z,4.00
2023-02-04T01:53:17.897Z,3.60
2023-02-04T01:53:28.947Z,4.10
2023-02-04T01:53:39.911Z,3.50
2023-02-04T01:53:50.681Z,4.20
2023-02-04T01:54:01.729Z,5.60
2023-02-04T01:54:12.689Z,5.20
2023-02-04T01:54:23.462Z,2.80
2023-02-04T01:54:34.521Z,2.20
2023-02-04T01:54:45.484Z,3.10
2023-02-04T01:54:56.242Z,4.30
2023-02-04T01:55:07.306Z,4.60
2023-02-04T01:55:18.295Z,4.10
2023-02-04T01:55:29.057Z,3.00
2023-02-04T01:55:40.125Z,3.50
2023-02-04T01:55:51.096Z,3.30
2023-02-04T01:56:01.859Z,2.90
2023-02-04T01:56:12.903Z,3.20
2023-02-04T01:56:23.869Z,4.10
2023-02-04T01:56:34.636Z,3.80
2023-02-04T01:56:45.698Z,4.80
2023-02-04T01:56:56.656Z,4.60
2023-02-04T01:57:07.432Z,3.70
2023-02-04T01:57:18.504Z,3.20
2023-02-04T01:57:29.434Z,3.50
2023-02-04T01:57:40.206Z,3.50
2023-02-04T01:57:51.244Z,3.90
2023-02-04T01:58:02.213Z,4.00
2023-02-04T01:58:12.978Z,4.80
2023-02-04T01:58:24.034Z,3.70
2023-02-04T01:58:35.007Z,3.30
2023-02-04T01:58:45.771Z,3.60
2023-02-04T01:58:56.816Z,4.10
2023-02-04T01:59:07.784Z,3.60
2023-02-04T01:59:18.547Z,3.70
2023-02-04T01:59:29.591Z,3.70
2023-02-04T01:59:40.573Z,3.90
2023-02-04T01:59:51.332Z,3.50
2023-02-04T02:00:02.374Z,3.80
2023-02-04T02:00:13.358Z,5.10
2023-02-04T02:00:24.128Z,6.20
2023-02-04T02:00:35.170Z,6.70
2023-02-04T02:00:46.178Z,6.80
2023-02-04T02:00:56.972Z,5.20
2023-02-04T02:01:08.036Z,3.70
2023-02-04T02:01:19.008Z,3.50
2023-02-04T02:01:29.770Z,2.60
2023-02-04T02:01:40.794Z,3.60
2023-02-04T02:01:51.764Z,3.60
2023-02-04T02:02:02.617Z,3.50
2023-02-04T02:02:13.120Z,3.60
2023-02-04T02:02:24.101Z,3.80
2023-02-04T02:02:34.922Z,3.90
2023-02-04T02:02:45.416Z,3.30
2023-02-04T02:02:56.378Z,3.60
2023-02-04T02:03:07.144Z,3.70
2023-02-04T02:03:18.184Z,4.00
2023-02-04T02:03:29.250Z,3.70
2023-02-04T02:03:39.991Z,3.70
2023-02-04T02:03:51.034Z,3.40
2023-02-04T02:04:02.012Z,4.50
2023-02-04T02:04:12.773Z,5.70
2023-02-04T02:04:23.829Z,5.30
2023-02-04T02:04:34.836Z,4.70
2023-02-04T02:04:45.585Z,4.20
2023-02-04T02:04:56.664Z,4.40
2023-02-04T02:05:07.599Z,4.30
2023-02-04T02:05:18.397Z,4.40
2023-02-04T02:05:29.432Z,3.90
2023-02-04T02:05:40.402Z,4.00
2023-02-04T02:05:51.161Z,4.00
2023-02-04T02:06:02.205Z,3.30
2023-02-04T02:06:13.181Z,4.50
2023-02-04T02:06:23.945Z,4.50
2023-02-04T02:06:35.018Z,5.80
2023-02-04T02:06:45.996Z,4.50
2023-02-04T02:06:56.760Z,5.90
2023-02-04T02:07:07.816Z,5.20
2023-02-04T02:07:18.798Z,5.40
2023-02-04T02:07:29.553Z,4.80
2023-02-04T02:07:40.619Z,5.30
2023-02-04T02:07:51.586Z,5.70
2023-02-04T02:08:02.382Z,5.70
2023-02-04T02:08:13.407Z,3.80
2023-02-04T02:08:24.406Z,4.00
2023-02-04T02:08:35.176Z,3.50
2023-02-04T02:08:46.222Z,5.50
2023-02-04T02:08:57.205Z,5.00
2023-02-04T02:09:07.971Z,4.60
2023-02-04T02:09:18.567Z,3.40
2023-02-04T02:09:29.585Z,4.00
2023-02-04T02:09:40.342Z,3.70
2023-02-04T02:09:51.396Z,4.50
2023-02-04T02:10:02.360Z,6.50
2023-02-04T02:10:13.135Z,5.70
2023-02-04T02:10:24.181Z,5.70
2023-02-04T02:10:35.152Z,4.80
2023-02-04T02:10:45.933Z,4.60
2023-02-04T02:10:56.987Z,4.10
2023-02-04T02:11:07.956Z,4.90
2023-02-04T02:11:18.718Z,5.90
2023-02-04T02:11:29.762Z,6.30
2023-02-04T02:11:40.738Z,5.70
2023-02-04T02:11:51.521Z,6.30
2023-02-04T02:12:02.555Z,6.60
2023-02-04T02:12:13.518Z,6.10
2023-02-04T02:12:24.379Z,4.20
2023-02-04T02:12:35.418Z,4.60
2023-02-04T02:12:46.391Z,4.40
2023-02-04T02:12:57.174Z,3.80
2023-02-04T02:13:08.198Z,3.40
2023-02-04T02:13:19.166Z,4.00
2023-02-04T02:13:29.932Z,4.20
2023-02-04T02:13:40.979Z,4.80
2023-02-04T02:13:51.951Z,5.40
2023-02-04T02:14:02.710Z,8.30
2023-02-04T02:14:13.762Z,8.40
2023-02-04T02:14:24.734Z,8.60
2023-02-04T02:14:35.508Z,8.20
2023-02-04T02:14:46.575Z,6.90
2023-02-04T02:14:57.560Z,4.50
2023-02-04T02:15:08.327Z,4.30
2023-02-04T02:15:19.371Z,6.00
2023-02-04T02:15:30.361Z,6.40
2023-02-04T02:15:41.129Z,6.40
2023-02-04T02:15:52.173Z,5.20
2023-02-04T02:16:03.146Z,5.60
2023-02-04T02:16:13.927Z,4.70
2023-02-04T02:16:25.084Z,4.10
2023-02-04T02:16:36.048Z,5.20
2023-02-04T02:16:46.897Z,4.90
2023-02-04T02:16:57.407Z,6.90
2023-02-04T02:17:08.328Z,6.90
2023-02-04T02:17:19.102Z,8.50
2023-02-04T02:17:30.149Z,7.80
2023-02-04T02:17:41.118Z,8.20
2023-02-04T02:17:51.881Z,6.50
2023-02-04T02:18:02.933Z,4.60
2023-02-04T02:18:13.904Z,5.00
2023-02-04T02:18:24.661Z,4.60
2023-02-04T02:18:35.711Z,4.50
2023-02-04T02:18:46.678Z,5.80
2023-02-04T02:18:57.444Z,6.40
2023-02-04T02:19:08.525Z,4.80
2023-02-04T02:19:19.483Z,5.50
2023-02-04T02:19:30.257Z,5.90
2023-02-04T02:19:41.301Z,6.10
2023-02-04T02:19:52.290Z,5.20
2023-02-04T02:20:03.137Z,5.60
2023-02-04T02:20:13.636Z,5.40
2023-02-04T02:20:24.608Z,5.80
2023-02-04T02:20:35.380Z,4.90
2023-02-04T02:20:46.422Z,5.20
2023-02-04T02:20:57.383Z,5.90
2023-02-04T02:21:08.150Z,6.00
2023-02-04T02:21:19.211Z,5.60
2023-02-04T02:21:30.183Z,3.80
2023-02-04T02:21:40.946Z,3.70
2023-02-04T02:21:51.997Z,4.50
2023-02-04T02:22:02.967Z,5.00
2023-02-04T02:22:13.723Z,5.80
2023-02-04T02:22:24.782Z,5.00
2023-02-04T02:22:35.782Z,4.60
2023-02-04T02:22:46.571Z,4.20
2023-02-04T02:22:57.606Z,4.50
2023-02-04T02:23:08.579Z,5.50
2023-02-04T02:23:19.342Z,5.80
2023-02-04T02:23:30.390Z,6.20
2023-02-04T02:23:41.350Z,5.30
2023-02-04T02:23:52.121Z,5.10
2023-02-04T02:24:03.171Z,4.40
2023-02-04T02:24:14.135Z,4.80
2023-02-04T02:24:24.898Z,4.60
2023-02-04T02:24:35.965Z,4.70
2023-02-04T02:24:46.944Z,5.00
2023-02-04T02:24:57.693Z,5.40
2023-02-04T02:25:08.765Z,4.80
2023-02-04T02:25:19.739Z,3.40